createdAt,value
2022-08-17T00:03:52.582Z,9.18
2022-08-17T00:06:25.520Z,9.73
2022-08-17T00:08:56.953Z,9.18
2022-08-17T00:11:31.945Z,9.70
2022-08-17T00:14:09.792Z,11.05
2022-08-17T00:16:55.341Z,10.00
2022-08-17T00:20:15.900Z,11.85
2022-08-17T00:22:52.535Z,12.15
2022-08-17T00:25:23.741Z,11.38
2022-08-17T00:27:52.441Z,12.48
2022-08-17T00:30:24.114Z,10.90
2022-08-17T00:33:26.089Z,11.02
2022-08-17T00:35:56.889Z,9.70
2022-08-17T00:38:30.529Z,10.57
2022-08-17T00:44:00.327Z,10.23
2022-08-17T00:46:33.581Z,10.30
2022-08-17T00:52:56.754Z,11.10
2022-08-17T00:55:30.689Z,10.88
2022-08-17T00:58:02.107Z,10.77
2022-08-17T01:00:38.992Z,9.88
2022-08-17T01:03:09.950Z,9.57
2022-08-17T01:05:42.308Z,9.35
2022-08-17T01:08:13.241Z,10.75
2022-08-17T01:10:59.416Z,9.07
2022-08-17T01:13:40.426Z,9.82
2022-08-17T01:16:22.565Z,9.85
2022-08-17T01:18:53.073Z,10.10
2022-08-17T01:25:31.886Z,9.98
2022-08-17T01:28:04.084Z,9.95
2022-08-17T01:30:57.739Z,10.82
2022-08-17T01:33:21.188Z,9.85
2022-08-17T01:35:49.838Z,10.27
2022-08-17T01:38:27.200Z,10.43
2022-08-17T01:41:03.140Z,11.13
2022-08-17T01:43:36.585Z,10.70
2022-08-17T01:46:06.111Z,12.07
2022-08-17T01:48:59.865Z,12.20
2022-08-17T01:51:32.848Z,12.10
2022-08-17T01:54:07.439Z,12.18
2022-08-17T01:59:09.458Z,12.48
2022-08-17T02:01:39.987Z,11.77
2022-08-17T02:04:13.400Z,11.13
2022-08-17T02:06:45.055Z,11.93
2022-08-17T02:09:19.563Z,12.20
2022-08-17T02:12:45.356Z,11.88
2022-08-17T02:15:16.237Z,12.07
2022-08-17T02:17:45.927Z,11.70
2022-08-17T02:23:37.892Z,11.32
2022-08-17T02:26:06.798Z,10.98
2022-08-17T02:28:35.829Z,11.30
2022-08-17T02:31:16.496Z,10.65
2022-08-17T02:33:45.347Z,10.93
2022-08-17T02:36:27.517Z,10.35
2022-08-17T02:38:57.076Z,10.13
2022-08-17T02:41:25.765Z,9.82
2022-08-17T02:44:00.818Z,10.35
2022-08-17T02:46:33.369Z,10.55
2022-08-17T02:49:03.225Z,9.80
2022-08-17T02:51:35.491Z,10.82
2022-08-17T02:54:40.129Z,9.15
2022-08-17T02:57:43.792Z,10.07
2022-08-17T03:00:39.685Z,9.18
2022-08-17T03:03:11.106Z,9.27
2022-08-17T03:05:40.820Z,9.88
2022-08-17T03:08:14.241Z,9.25
2022-08-17T03:13:19.628Z,8.25
2022-08-17T03:15:49.242Z,8.65
2022-08-17T03:18:26.363Z,8.93
2022-08-17T03:20:56.032Z,8.38
2022-08-17T03:23:25.430Z,8.43
2022-08-17T03:25:57.531Z,8.85
2022-08-17T03:28:30.568Z,8.25
2022-08-17T03:31:24.102Z,8.38
2022-08-17T03:33:54.952Z,8.82
2022-08-17T03:36:23.805Z,9.07
2022-08-17T03:38:52.387Z,9.23
2022-08-17T03:41:20.991Z,8.85
2022-08-17T03:43:50.565Z,9.85
2022-08-17T03:46:41.799Z,9.25
2022-08-17T03:52:44.567Z,9.90
2022-08-17T03:55:38.576Z,10.02
2022-08-17T03:58:07.299Z,10.20
2022-08-17T04:00:43.626Z,11.35
2022-08-17T04:03:12.315Z,11.30
2022-08-17T04:05:42.695Z,10.32
2022-08-17T04:08:11.996Z,12.52
2022-08-17T04:10:44.944Z,11.30
2022-08-17T04:13:24.221Z,11.67
2022-08-17T04:15:54.648Z,15.23
2022-08-17T04:18:23.283Z,12.93
2022-08-17T04:20:54.291Z,16.92
2022-08-17T04:23:22.939Z,15.80
2022-08-17T04:25:54.061Z,15.98
2022-08-17T04:28:22.745Z,16.20
2022-08-17T04:30:51.425Z,16.33
2022-08-17T04:33:27.423Z,15.15
2022-08-17T04:36:00.009Z,16.33
2022-08-17T04:38:32.477Z,19.60
2022-08-17T04:41:21.291Z,19.35
2022-08-17T04:43:51.605Z,22.02
2022-08-17T04:46:27.365Z,20.38
2022-08-17T04:48:58.278Z,21.05
2022-08-17T04:51:31.248Z,22.08
2022-08-17T04:54:02.072Z,26.20
2022-08-17T04:56:33.014Z,23.27
2022-08-17T04:59:04.715Z,22.38
2022-08-17T05:01:58.155Z,21.77
2022-08-17T05:05:21.718Z,21.38
2022-08-17T05:07:52.613Z,22.55
2022-08-17T05:10:21.514Z,19.67
2022-08-17T05:12:59.900Z,21.80
2022-08-17T05:15:44.752Z,22.08
2022-08-17T05:18:13.982Z,21.17
2022-08-17T05:20:44.181Z,20.88
2022-08-17T05:23:17.826Z,20.17
2022-08-17T05:25:49.762Z,19.88
2022-08-17T05:28:23.465Z,19.23
2022-08-17T05:30:57.349Z,19.25
2022-08-17T05:33:33.529Z,18.48
2022-08-17T05:36:03.657Z,18.38
2022-08-17T05:38:35.084Z,16.75
2022-08-17T05:41:05.817Z,16.45
2022-08-17T05:43:36.833Z,15.52
2022-08-17T05:46:09.101Z,16.55
2022-08-17T05:48:43.081Z,16.15
2022-08-17T05:51:44.358Z,15.35
2022-08-17T05:55:10.822Z,14.15
2022-08-17T05:57:56.269Z,13.52
2022-08-17T06:00:30.782Z,12.98
2022-08-17T06:03:17.241Z,13.52
2022-08-17T06:06:03.896Z,12.50
2022-08-17T06:08:36.326Z,11.00
2022-08-17T06:11:12.131Z,11.43
2022-08-17T06:14:02.009Z,10.88
2022-08-17T06:16:36.866Z,10.65
2022-08-17T06:19:16.740Z,10.70
2022-08-17T06:21:48.307Z,9.60
2022-08-17T06:24:37.183Z,9.98
2022-08-17T06:27:17.889Z,9.20
2022-08-17T06:29:52.496Z,9.00
2022-08-17T06:32:23.355Z,9.25
2022-08-17T06:35:28.838Z,8.73
2022-08-17T06:38:05.466Z,8.80
2022-08-17T06:40:53.621Z,9.38
2022-08-17T06:43:49.220Z,8.23
2022-08-17T06:46:25.493Z,7.18
2022-08-17T06:49:07.560Z,7.35
2022-08-17T06:51:40.893Z,7.10
2022-08-17T06:54:37.150Z,6.93
2022-08-17T06:57:14.953Z,6.85
2022-08-17T07:03:37.806Z,6.25
2022-08-17T07:06:12.424Z,6.43
2022-08-17T07:08:49.951Z,5.32
2022-08-17T07:11:21.899Z,5.22
2022-08-17T07:14:04.355Z,5.07
2022-08-17T07:16:40.197Z,5.78
2022-08-17T07:23:00.602Z,5.40
2022-08-17T07:25:30.783Z,5.45
2022-08-17T07:28:02.627Z,5.35
2022-08-17T07:30:47.089Z,4.95
2022-08-17T07:33:24.399Z,5.78
2022-08-17T07:35:55.620Z,5.45
2022-08-17T07:38:28.702Z,5.45
2022-08-17T07:41:04.797Z,4.97
2022-08-17T07:43:36.227Z,5.30
2022-08-17T07:46:32.883Z,5.10
2022-08-17T07:52:50.797Z,5.10
2022-08-17T07:55:31.041Z,4.60
2022-08-17T07:58:00.470Z,5.20
2022-08-17T08:00:32.466Z,4.97
2022-08-17T08:03:20.506Z,4.60
2022-08-17T08:05:54.699Z,4.30
2022-08-17T08:08:33.990Z,4.10
2022-08-17T08:11:08.586Z,4.63
2022-08-17T08:13:42.621Z,4.07
2022-08-17T08:16:25.106Z,3.78
2022-08-17T08:28:20.769Z,4.63
2022-08-17T08:30:52.189Z,4.60
2022-08-17T08:33:34.315Z,4.40
2022-08-17T08:36:08.790Z,4.07
2022-08-17T08:38:43.502Z,4.82
2022-08-17T08:46:26.121Z,4.32
2022-08-17T08:53:04.521Z,3.78
2022-08-17T08:55:47.905Z,4.15
2022-08-17T08:58:31.870Z,4.47
2022-08-17T09:13:21.535Z,4.63
2022-08-17T09:15:58.472Z,5.57
2022-08-17T09:19:00.285Z,5.47
2022-08-17T09:21:25.870Z,5.00
2022-08-17T09:24:01.912Z,4.57
2022-08-17T09:26:35.401Z,4.22
2022-08-17T09:32:55.451Z,3.83
2022-08-17T09:35:32.921Z,3.92
2022-08-17T09:38:16.395Z,3.88
2022-08-17T09:40:50.655Z,3.90
2022-08-17T09:43:30.733Z,3.90
2022-08-17T09:46:04.280Z,4.50
2022-08-17T09:48:39.086Z,4.53
2022-08-17T09:51:58.074Z,3.90
2022-08-17T09:55:40.345Z,3.78
2022-08-17T09:58:16.745Z,3.47
2022-08-17T10:00:53.240Z,3.90
2022-08-17T10:03:50.965Z,4.15
2022-08-17T10:06:24.047Z,3.85
2022-08-17T10:09:04.677Z,3.63
2022-08-17T10:11:50.460Z,3.90
2022-08-17T10:15:34.265Z,3.60
2022-08-17T10:18:18.107Z,4.70
2022-08-17T10:21:19.698Z,4.97
2022-08-17T10:24:07.960Z,4.35
2022-08-17T10:26:46.205Z,4.38
2022-08-17T10:30:43.896Z,4.28
2022-08-17T10:33:18.702Z,3.97
2022-08-17T10:35:53.578Z,4.13
2022-08-17T10:38:36.629Z,4.38
2022-08-17T10:41:16.029Z,4.40
2022-08-17T10:43:57.928Z,3.92
2022-08-17T10:48:04.310Z,4.35
2022-08-17T10:51:08.949Z,4.05
2022-08-17T10:57:42.003Z,4.18
2022-08-17T11:00:19.116Z,3.42
2022-08-17T11:02:51.116Z,4.45
2022-08-17T11:05:36.362Z,4.30
2022-08-17T11:09:00.117Z,4.78
2022-08-17T11:11:47.649Z,5.57
2022-08-17T11:18:38.541Z,5.30
2022-08-17T11:21:25.379Z,5.88
2022-08-17T11:24:10.598Z,5.15
2022-08-17T11:26:46.929Z,4.88
2022-08-17T11:30:05.679Z,5.05
2022-08-17T11:32:47.525Z,5.03
2022-08-17T11:35:33.820Z,5.65
2022-08-17T11:38:16.303Z,5.55
2022-08-17T11:41:04.639Z,5.63
2022-08-17T11:44:06.232Z,6.00
2022-08-17T11:48:09.517Z,5.80
2022-08-17T11:51:11.090Z,6.55
2022-08-17T11:58:03.709Z,6.05
2022-08-17T12:00:54.932Z,5.88
2022-08-17T12:03:55.662Z,6.13
2022-08-17T12:06:36.422Z,6.50
2022-08-17T12:12:56.517Z,6.25
2022-08-17T12:15:31.805Z,6.95
2022-08-17T12:18:01.347Z,6.18
2022-08-17T12:21:07.024Z,6.82
2022-08-17T12:23:44.180Z,6.47
2022-08-17T12:26:19.669Z,7.00
2022-08-17T12:28:51.851Z,6.63
2022-08-17T12:31:23.443Z,6.97
2022-08-17T12:33:53.328Z,7.03
2022-08-17T12:36:26.079Z,6.38
2022-08-17T12:39:12.808Z,7.53
2022-08-17T12:42:23.928Z,7.45
2022-08-17T12:45:24.420Z,8.20
2022-08-17T12:48:02.874Z,8.07
2022-08-17T12:50:32.340Z,7.82
2022-08-17T12:53:02.637Z,6.18
2022-08-17T12:55:40.217Z,7.60
2022-08-17T12:58:19.097Z,6.72
2022-08-17T13:00:53.945Z,7.40
2022-08-17T13:03:36.388Z,6.32
2022-08-17T13:06:07.498Z,6.13
2022-08-17T13:08:38.405Z,6.90
2022-08-17T13:13:43.968Z,7.30
2022-08-17T13:16:20.865Z,7.07
2022-08-17T13:18:51.351Z,7.05
2022-08-17T13:21:27.655Z,6.80
2022-08-17T13:23:58.618Z,6.85
2022-08-17T13:26:32.774Z,6.47
2022-08-17T13:29:04.089Z,7.22
2022-08-17T13:31:51.829Z,5.90
2022-08-17T13:37:33.055Z,7.68
2022-08-17T13:40:29.296Z,6.95
2022-08-17T13:42:59.044Z,7.22
2022-08-17T13:45:44.676Z,7.90
2022-08-17T13:48:25.337Z,7.38
2022-08-17T13:51:15.098Z,7.05
2022-08-17T13:53:57.869Z,7.78
2022-08-17T13:56:31.710Z,6.43
2022-08-17T13:59:08.730Z,7.82
2022-08-17T14:01:47.469Z,6.45
2022-08-17T14:05:33.548Z,7.40
2022-08-17T14:08:08.316Z,8.57
2022-08-17T14:10:40.318Z,9.00
2022-08-17T14:13:09.480Z,9.50
2022-08-17T14:15:55.754Z,9.38
2022-08-17T14:18:55.438Z,9.48
2022-08-17T14:21:17.538Z,8.65
2022-08-17T14:23:54.423Z,7.78
2022-08-17T14:29:19.592Z,6.60
2022-08-17T14:31:54.507Z,7.15
2022-08-17T14:35:39.257Z,7.40
2022-08-17T14:38:08.616Z,6.75
2022-08-17T14:41:29.232Z,7.40
2022-08-17T14:44:02.048Z,6.22
2022-08-17T14:46:55.588Z,6.68
2022-08-17T14:50:37.348Z,7.53
2022-08-17T14:53:11.353Z,7.20
2022-08-17T14:56:05.731Z,6.25
2022-08-17T14:58:34.481Z,5.68
2022-08-17T15:01:32.028Z,5.88
2022-08-17T15:04:07.185Z,6.72
2022-08-17T15:07:00.932Z,6.03
2022-08-17T15:10:20.267Z,6.15
2022-08-17T15:12:49.389Z,5.68
2022-08-17T15:15:19.232Z,5.88
2022-08-17T15:17:51.802Z,5.68
2022-08-17T15:20:28.965Z,5.50
2022-08-17T15:22:59.346Z,5.72
2022-08-17T15:25:53.705Z,5.97
2022-08-17T15:30:57.322Z,5.90
2022-08-17T15:33:31.981Z,5.78
2022-08-17T15:36:06.601Z,5.30
2022-08-17T15:38:36.991Z,4.35
2022-08-17T15:41:05.655Z,5.00
2022-08-17T15:43:34.991Z,4.75
2022-08-17T15:49:09.933Z,3.95
2022-08-17T15:52:16.968Z,4.20
2022-08-17T15:55:13.333Z,4.50
2022-08-17T15:57:45.990Z,4.32
2022-08-17T16:00:53.124Z,4.53
2022-08-17T16:04:01.278Z,4.95
2022-08-17T16:06:19.985Z,5.40
2022-08-17T16:08:51.862Z,5.07
2022-08-17T16:11:26.454Z,4.80
2022-08-17T16:13:56.157Z,4.70
2022-08-17T16:16:29.176Z,5.03
2022-08-17T16:18:59.365Z,5.43
2022-08-17T16:21:42.448Z,5.22
2022-08-17T16:24:15.009Z,5.80
2022-08-17T16:26:46.904Z,5.05
2022-08-17T16:29:15.557Z,5.55
2022-08-17T16:31:44.251Z,5.40
2022-08-17T16:34:15.727Z,5.68
2022-08-17T16:37:40.216Z,4.80
2022-08-17T16:40:43.558Z,4.85
2022-08-17T16:43:37.983Z,5.53
2022-08-17T16:46:08.661Z,5.15
2022-08-17T16:48:37.319Z,4.75
2022-08-17T16:51:06.204Z,4.65
2022-08-17T16:53:36.539Z,5.53
2022-08-17T16:56:10.337Z,5.10
2022-08-17T17:01:39.001Z,4.90
2022-08-17T17:04:10.865Z,5.55
2022-08-17T17:07:42.111Z,5.97
2022-08-17T17:10:40.369Z,5.68
2022-08-17T17:13:14.596Z,5.35
2022-08-17T17:15:55.651Z,5.72
2022-08-17T17:18:29.718Z,4.90
2022-08-17T18:43:53.152Z,6.00
2022-08-17T18:46:30.573Z,5.90
2022-08-17T18:49:03.095Z,5.93
2022-08-17T18:51:41.715Z,6.60
2022-08-17T18:54:20.932Z,6.03
2022-08-17T18:56:57.247Z,5.50
2022-08-17T18:59:36.980Z,6.20
2022-08-17T19:02:43.861Z,6.13
2022-08-17T19:05:14.596Z,5.88
2022-08-17T19:07:46.769Z,5.55
2022-08-17T19:10:21.877Z,5.50
2022-08-17T19:12:55.218Z,5.75
2022-08-17T19:15:40.436Z,5.88
2022-08-17T19:18:15.520Z,6.47
2022-08-17T19:20:47.256Z,5.93
2022-08-17T19:23:21.871Z,6.50
2022-08-17T19:25:52.625Z,5.60
2022-08-17T19:28:25.464Z,5.65
2022-08-17T19:30:59.624Z,5.60
2022-08-17T19:33:28.716Z,5.93
2022-08-17T19:36:03.418Z,5.78
2022-08-17T19:38:42.799Z,5.55
2022-08-17T19:41:17.920Z,5.72
2022-08-17T19:44:32.862Z,6.10
2022-08-17T19:47:08.816Z,5.40
2022-08-17T19:49:47.044Z,5.85
2022-08-17T19:52:41.953Z,6.18
2022-08-17T19:55:20.598Z,5.90
2022-08-17T19:58:00.144Z,6.30
2022-08-17T20:00:31.369Z,5.80
2022-08-17T20:03:05.923Z,5.95
2022-08-17T20:05:54.604Z,6.00
2022-08-17T20:08:28.097Z,5.85
2022-08-17T20:11:01.135Z,5.88
2022-08-17T20:13:35.122Z,5.85
2022-08-17T20:16:05.038Z,5.65
2022-08-17T20:18:44.055Z,5.72
2022-08-17T20:21:20.854Z,6.20
2022-08-17T20:23:54.874Z,6.00
2022-08-17T20:29:37.268Z,6.05
2022-08-17T20:32:25.696Z,6.72
2022-08-17T20:35:11.152Z,6.00
2022-08-17T20:37:43.301Z,6.40
2022-08-17T20:40:36.614Z,6.15
2022-08-17T20:43:59.221Z,6.93
2022-08-17T20:47:02.046Z,6.47
2022-08-17T20:49:42.409Z,6.28
2022-08-17T20:52:13.584Z,6.68
2022-08-17T20:54:51.272Z,6.95
2022-08-17T20:57:49.128Z,6.25
2022-08-17T21:00:45.871Z,6.70
2022-08-17T21:03:52.353Z,6.40
2022-08-17T21:06:26.819Z,6.55
2022-08-17T21:08:59.119Z,6.90
2022-08-17T21:12:04.210Z,5.75
2022-08-17T21:14:56.303Z,6.72
2022-08-17T21:17:51.573Z,5.95
2022-08-17T21:20:32.563Z,6.68
2022-08-17T21:23:23.669Z,6.70
2022-08-17T21:26:10.924Z,6.70
2022-08-17T21:28:59.895Z,6.28
2022-08-17T21:31:35.416Z,6.95
2022-08-17T21:34:25.989Z,6.30
2022-08-17T21:36:54.565Z,7.18
2022-08-17T21:39:33.774Z,6.78
2022-08-17T21:42:02.584Z,6.88
2022-08-17T21:44:35.723Z,7.32
2022-08-17T21:47:16.724Z,7.28
2022-08-17T21:49:45.396Z,7.32
2022-08-17T21:52:15.148Z,7.25
2022-08-17T21:54:52.731Z,6.95
2022-08-17T21:57:23.909Z,7.18
2022-08-17T21:59:54.934Z,6.75
2022-08-17T22:02:26.312Z,6.88
2022-08-17T22:05:00.849Z,6.47
2022-08-17T22:07:38.861Z,6.97
2022-08-17T22:10:27.442Z,6.50
2022-08-17T22:13:16.511Z,6.68
2022-08-17T22:15:47.837Z,6.60
2022-08-17T22:18:21.256Z,6.80
2022-08-17T22:20:52.274Z,6.43
2022-08-17T22:23:45.278Z,7.25
2022-08-17T22:26:18.207Z,7.40
2022-08-17T22:28:49.726Z,8.00
2022-08-17T22:31:19.830Z,7.20
2022-08-17T22:33:49.987Z,7.43
2022-08-17T22:36:24.824Z,7.20
2022-08-17T22:38:55.509Z,6.70
2022-08-17T22:41:34.944Z,6.68
2022-08-17T22:44:14.244Z,6.95
2022-08-17T22:46:52.132Z,6.82
2022-08-17T22:49:29.348Z,7.00
2022-08-17T22:52:11.003Z,7.22
2022-08-17T22:54:57.526Z,6.78
2022-08-17T22:57:46.234Z,7.10
2022-08-17T23:00:33.922Z,7.30
2022-08-17T23:03:09.261Z,6.78
2022-08-17T23:05:39.285Z,7.10
2022-08-17T23:08:08.041Z,7.40
2022-08-17T23:10:37.609Z,7.35
2022-08-17T23:13:11.966Z,7.25
2022-08-17T23:15:41.473Z,7.07
2022-08-17T23:18:10.270Z,7.20
2022-08-17T23:20:40.830Z,7.25
2022-08-17T23:23:10.198Z,6.93
2022-08-17T23:25:39.324Z,7.15
2022-08-17T23:28:09.252Z,6.90
2022-08-17T23:30:41.091Z,7.72
2022-08-17T23:33:12.105Z,7.20
2022-08-17T23:35:41.196Z,7.07
2022-08-17T23:38:10.887Z,7.15
2022-08-17T23:40:39.994Z,7.47
2022-08-17T23:43:24.584Z,7.30
2022-08-17T23:45:55.448Z,7.25
2022-08-17T23:48:28.417Z,6.70
2022-08-17T23:51:09.219Z,7.32
2022-08-17T23:53:38.987Z,7.32
2022-08-17T23:56:11.315Z,7.07
2022-08-17T23:58:43.397Z,7.03
